Terminal Aerodrome Forecast
Issued by NWS Twin Cities, MN

Home | Current Version | Previous Version | Graphics & Text | Print | Product List | Glossary On
Versions: 1 2 3 4 5 6 7 8 9 10 11 12 13 14 15 16 17 18 19 20 21 22 23
000
FTUS43 KMPX 202337
TAFEAU
TAF
KEAU 202337Z 2100/2124 14004KT 5SM BR OVC004
     FM210200 11004KT 2SM -DZ BR OVC003
     FM211300 08006KT 1 1/2SM -RA BR OVC002
     FM212200 14004KT 3SM -SHRA BR OVC004=

USA.gov is the U.S. government's official web portal to all federal, state and local government web resources and services.